sensor_id;sensor_type;location;lat;lon;timestamp;P1;durP1;ratioP1;P2;durP2;ratioP2
11287;SDS011;5700;50.996;7.044;2023-02-18T00:01:45;8.57;;;4.88;;
11287;SDS011;5700;50.996;7.044;2023-02-18T00:04:47;8.63;;;5.15;;
11287;SDS011;5700;50.996;7.044;2023-02-18T00:07:48;8.52;;;4.70;;
11287;SDS011;5700;50.996;7.044;2023-02-18T00:10:51;7.93;;;4.75;;
11287;SDS011;5700;50.996;7.044;2023-02-18T00:13:54;8.77;;;5.30;;
11287;SDS011;5700;50.996;7.044;2023-02-18T00:16:56;8.18;;;5.18;;
11287;SDS011;5700;50.996;7.044;2023-02-18T00:19:57;10.48;;;4.85;;
11287;SDS011;5700;50.996;7.044;2023-02-18T00:22:59;9.23;;;4.38;;
11287;SDS011;5700;50.996;7.044;2023-02-18T00:26:03;9.20;;;5.07;;
11287;SDS011;5700;50.996;7.044;2023-02-18T00:29:05;8.57;;;5.18;;
11287;SDS011;5700;50.996;7.044;2023-02-18T00:32:07;12.23;;;5.55;;
11287;SDS011;5700;50.996;7.044;2023-02-18T00:35:08;10.68;;;5.07;;
11287;SDS011;5700;50.996;7.044;2023-02-18T00:38:10;8.90;;;5.03;;
11287;SDS011;5700;50.996;7.044;2023-02-18T00:41:13;8.73;;;4.68;;
11287;SDS011;5700;50.996;7.044;2023-02-18T00:44:15;7.85;;;4.43;;
11287;SDS011;5700;50.996;7.044;2023-02-18T00:47:17;9.25;;;4.95;;
11287;SDS011;5700;50.996;7.044;2023-02-18T00:50:19;8.40;;;4.57;;
11287;SDS011;5700;50.996;7.044;2023-02-18T00:53:20;10.52;;;5.32;;
11287;SDS011;5700;50.996;7.044;2023-02-18T00:56:23;9.05;;;4.78;;
11287;SDS011;5700;50.996;7.044;2023-02-18T00:59:25;8.80;;;4.75;;
11287;SDS011;5700;50.996;7.044;2023-02-18T01:02:26;7.78;;;4.55;;
11287;SDS011;5700;50.996;7.044;2023-02-18T01:05:28;8.07;;;4.40;;
11287;SDS011;5700;50.996;7.044;2023-02-18T01:08:29;9.55;;;4.68;;
11287;SDS011;5700;50.996;7.044;2023-02-18T01:11:32;9.52;;;4.20;;
11287;SDS011;5700;50.996;7.044;2023-02-18T01:14:33;8.48;;;4.60;;
11287;SDS011;5700;50.996;7.044;2023-02-18T01:17:35;7.70;;;4.10;;
11287;SDS011;5700;50.996;7.044;2023-02-18T01:20:37;8.63;;;3.85;;
11287;SDS011;5700;50.996;7.044;2023-02-18T01:23:39;6.22;;;3.65;;
11287;SDS011;5700;50.996;7.044;2023-02-18T01:26:43;6.43;;;3.63;;
11287;SDS011;5700;50.996;7.044;2023-02-18T01:29:44;7.78;;;3.90;;
11287;SDS011;5700;50.996;7.044;2023-02-18T01:32:46;6.95;;;3.83;;
11287;SDS011;5700;50.996;7.044;2023-02-18T01:35:47;6.95;;;4.03;;
11287;SDS011;5700;50.996;7.044;2023-02-18T01:38:49;5.75;;;3.08;;
11287;SDS011;5700;50.996;7.044;2023-02-18T01:41:52;6.28;;;3.30;;
11287;SDS011;5700;50.996;7.044;2023-02-18T01:44:53;5.70;;;3.10;;
11287;SDS011;5700;50.996;7.044;2023-02-18T01:47:56;8.43;;;3.47;;
11287;SDS011;5700;50.996;7.044;2023-02-18T01:50:59;5.30;;;2.80;;
11287;SDS011;5700;50.996;7.044;2023-02-18T01:54:04;6.65;;;3.05;;
11287;SDS011;5700;50.996;7.044;2023-02-18T01:57:10;7.07;;;3.33;;
11287;SDS011;5700;50.996;7.044;2023-02-18T02:00:14;6.50;;;3.42;;
11287;SDS011;5700;50.996;7.044;2023-02-18T02:03:16;5.63;;;2.92;;
11287;SDS011;5700;50.996;7.044;2023-02-18T02:06:19;4.78;;;2.75;;
11287;SDS011;5700;50.996;7.044;2023-02-18T02:09:21;4.85;;;2.70;;
11287;SDS011;5700;50.996;7.044;2023-02-18T02:12:34;6.20;;;3.25;;
11287;SDS011;5700;50.996;7.044;2023-02-18T02:15:41;5.20;;;2.58;;
11287;SDS011;5700;50.996;7.044;2023-02-18T02:18:48;4.90;;;3.00;;
11287;SDS011;5700;50.996;7.044;2023-02-18T02:22:04;4.55;;;2.55;;
11287;SDS011;5700;50.996;7.044;2023-02-18T02:25:29;4.47;;;2.78;;
11287;SDS011;5700;50.996;7.044;2023-02-18T02:28:49;5.70;;;3.08;;
11287;SDS011;5700;50.996;7.044;2023-02-18T02:32:05;5.15;;;2.80;;
11287;SDS011;5700;50.996;7.044;2023-02-18T02:35:16;6.07;;;3.33;;
11287;SDS011;5700;50.996;7.044;2023-02-18T02:38:21;6.38;;;3.25;;
11287;SDS011;5700;50.996;7.044;2023-02-18T02:41:32;6.80;;;3.47;;
11287;SDS011;5700;50.996;7.044;2023-02-18T02:44:45;6.30;;;3.65;;
11287;SDS011;5700;50.996;7.044;2023-02-18T02:47:50;6.35;;;3.15;;
11287;SDS011;5700;50.996;7.044;2023-02-18T02:50:58;8.40;;;4.30;;
11287;SDS011;5700;50.996;7.044;2023-02-18T02:54:07;6.93;;;4.13;;
11287;SDS011;5700;50.996;7.044;2023-02-18T03:00:46;9.15;;;4.18;;
11287;SDS011;5700;50.996;7.044;2023-02-18T03:04:02;8.68;;;4.35;;
11287;SDS011;5700;50.996;7.044;2023-02-18T03:07:15;8.18;;;4.78;;
11287;SDS011;5700;50.996;7.044;2023-02-18T03:10:28;10.05;;;5.07;;
11287;SDS011;5700;50.996;7.044;2023-02-18T03:13:44;8.15;;;4.85;;
11287;SDS011;5700;50.996;7.044;2023-02-18T03:16:52;8.82;;;5.13;;
11287;SDS011;5700;50.996;7.044;2023-02-18T03:20:02;9.40;;;5.38;;
11287;SDS011;5700;50.996;7.044;2023-02-18T03:23:10;8.57;;;4.70;;
11287;SDS011;5700;50.996;7.044;2023-02-18T03:26:14;8.85;;;4.47;;
11287;SDS011;5700;50.996;7.044;2023-02-18T03:29:16;7.30;;;3.90;;
11287;SDS011;5700;50.996;7.044;2023-02-18T03:32:19;6.35;;;3.63;;
11287;SDS011;5700;50.996;7.044;2023-02-18T03:35:22;5.95;;;3.50;;
11287;SDS011;5700;50.996;7.044;2023-02-18T03:38:27;5.97;;;2.92;;
11287;SDS011;5700;50.996;7.044;2023-02-18T03:41:31;5.43;;;2.60;;
11287;SDS011;5700;50.996;7.044;2023-02-18T03:44:33;5.65;;;2.70;;
11287;SDS011;5700;50.996;7.044;2023-02-18T03:47:34;7.22;;;2.85;;
11287;SDS011;5700;50.996;7.044;2023-02-18T03:50:37;4.50;;;2.15;;
11287;SDS011;5700;50.996;7.044;2023-02-18T03:53:40;4.43;;;2.50;;
11287;SDS011;5700;50.996;7.044;2023-02-18T03:56:41;4.60;;;2.42;;
11287;SDS011;5700;50.996;7.044;2023-02-18T03:59:43;4.78;;;2.58;;
11287;SDS011;5700;50.996;7.044;2023-02-18T04:02:44;6.35;;;2.28;;
11287;SDS011;5700;50.996;7.044;2023-02-18T04:05:46;4.47;;;2.70;;
11287;SDS011;5700;50.996;7.044;2023-02-18T04:08:49;4.07;;;1.83;;
11287;SDS011;5700;50.996;7.044;2023-02-18T04:11:50;4.78;;;2.05;;
11287;SDS011;5700;50.996;7.044;2023-02-18T04:14:52;4.80;;;2.10;;
11287;SDS011;5700;50.996;7.044;2023-02-18T04:17:53;3.53;;;1.90;;
11287;SDS011;5700;50.996;7.044;2023-02-18T04:20:55;3.15;;;1.75;;
11287;SDS011;5700;50.996;7.044;2023-02-18T04:23:57;3.78;;;1.83;;
11287;SDS011;5700;50.996;7.044;2023-02-18T04:27:00;5.13;;;1.88;;
11287;SDS011;5700;50.996;7.044;2023-02-18T04:30:01;3.33;;;1.90;;
11287;SDS011;5700;50.996;7.044;2023-02-18T04:33:02;5.72;;;1.80;;
11287;SDS011;5700;50.996;7.044;2023-02-18T04:36:04;2.08;;;1.10;;
11287;SDS011;5700;50.996;7.044;2023-02-18T04:39:07;2.13;;;1.25;;
11287;SDS011;5700;50.996;7.044;2023-02-18T04:42:09;2.40;;;1.15;;
11287;SDS011;5700;50.996;7.044;2023-02-18T04:45:10;1.48;;;0.77;;
11287;SDS011;5700;50.996;7.044;2023-02-18T04:48:12;1.10;;;0.88;;
11287;SDS011;5700;50.996;7.044;2023-02-18T04:51:13;1.65;;;0.80;;
11287;SDS011;5700;50.996;7.044;2023-02-18T04:54:16;0.63;;;0.52;;
11287;SDS011;5700;50.996;7.044;2023-02-18T04:57:17;1.23;;;0.70;;
11287;SDS011;5700;50.996;7.044;2023-02-18T05:00:19;1.20;;;0.60;;
11287;SDS011;5700;50.996;7.044;2023-02-18T05:03:20;1.90;;;0.60;;
11287;SDS011;5700;50.996;7.044;2023-02-18T05:06:22;0.70;;;0.60;;
11287;SDS011;5700;50.996;7.044;2023-02-18T05:09:24;1.15;;;0.60;;
11287;SDS011;5700;50.996;7.044;2023-02-18T05:12:26;0.60;;;0.50;;
11287;SDS011;5700;50.996;7.044;2023-02-18T05:15:27;0.95;;;0.70;;
11287;SDS011;5700;50.996;7.044;2023-02-18T05:18:29;1.30;;;0.60;;
11287;SDS011;5700;50.996;7.044;2023-02-18T05:21:30;0.75;;;0.60;;
11287;SDS011;5700;50.996;7.044;2023-02-18T05:24:33;1.38;;;0.88;;
11287;SDS011;5700;50.996;7.044;2023-02-18T05:27:34;1.85;;;1.10;;
11287;SDS011;5700;50.996;7.044;2023-02-18T05:30:36;2.83;;;1.00;;
11287;SDS011;5700;50.996;7.044;2023-02-18T05:33:37;2.17;;;1.00;;
11287;SDS011;5700;50.996;7.044;2023-02-18T05:36:39;2.85;;;1.63;;
11287;SDS011;5700;50.996;7.044;2023-02-18T05:39:42;2.53;;;1.40;;
11287;SDS011;5700;50.996;7.044;2023-02-18T05:42:43;3.22;;;1.60;;
11287;SDS011;5700;50.996;7.044;2023-02-18T05:45:45;2.78;;;1.63;;
11287;SDS011;5700;50.996;7.044;2023-02-18T05:48:46;2.50;;;1.48;;
11287;SDS011;5700;50.996;7.044;2023-02-18T05:51:47;3.45;;;1.88;;
11287;SDS011;5700;50.996;7.044;2023-02-18T05:54:50;4.07;;;1.60;;
11287;SDS011;5700;50.996;7.044;2023-02-18T05:57:52;2.95;;;1.88;;
11287;SDS011;5700;50.996;7.044;2023-02-18T06:00:53;6.90;;;1.85;;
11287;SDS011;5700;50.996;7.044;2023-02-18T06:03:54;3.00;;;1.52;;
11287;SDS011;5700;50.996;7.044;2023-02-18T06:06:56;2.28;;;1.17;;
11287;SDS011;5700;50.996;7.044;2023-02-18T06:09:58;3.83;;;1.17;;
11287;SDS011;5700;50.996;7.044;2023-02-18T06:13:00;2.03;;;1.20;;
11287;SDS011;5700;50.996;7.044;2023-02-18T06:16:03;2.78;;;1.67;;
11287;SDS011;5700;50.996;7.044;2023-02-18T06:19:05;1.60;;;1.13;;
11287;SDS011;5700;50.996;7.044;2023-02-18T06:22:06;3.25;;;0.98;;
11287;SDS011;5700;50.996;7.044;2023-02-18T06:25:09;2.13;;;1.10;;
11287;SDS011;5700;50.996;7.044;2023-02-18T06:28:10;2.25;;;1.20;;
11287;SDS011;5700;50.996;7.044;2023-02-18T06:31:12;2.72;;;1.30;;
11287;SDS011;5700;50.996;7.044;2023-02-18T06:34:14;3.08;;;1.40;;
11287;SDS011;5700;50.996;7.044;2023-02-18T06:37:16;2.13;;;1.30;;
11287;SDS011;5700;50.996;7.044;2023-02-18T06:40:19;2.45;;;1.40;;
11287;SDS011;5700;50.996;7.044;2023-02-18T06:43:20;1.95;;;1.00;;
11287;SDS011;5700;50.996;7.044;2023-02-18T06:46:22;2.33;;;1.20;;
11287;SDS011;5700;50.996;7.044;2023-02-18T06:49:23;1.95;;;1.05;;
11287;SDS011;5700;50.996;7.044;2023-02-18T06:52:25;1.50;;;1.00;;
11287;SDS011;5700;50.996;7.044;2023-02-18T06:55:27;1.35;;;0.80;;
11287;SDS011;5700;50.996;7.044;2023-02-18T06:58:29;1.27;;;0.85;;
11287;SDS011;5700;50.996;7.044;2023-02-18T07:01:30;0.98;;;0.80;;
11287;SDS011;5700;50.996;7.044;2023-02-18T07:04:32;1.45;;;0.70;;
11287;SDS011;5700;50.996;7.044;2023-02-18T07:07:33;0.52;;;0.52;;
11287;SDS011;5700;50.996;7.044;2023-02-18T07:10:36;1.08;;;0.70;;
11287;SDS011;5700;50.996;7.044;2023-02-18T07:13:37;1.02;;;0.68;;
11287;SDS011;5700;50.996;7.044;2023-02-18T07:16:39;0.85;;;0.77;;
11287;SDS011;5700;50.996;7.044;2023-02-18T07:19:40;0.73;;;0.55;;
11287;SDS011;5700;50.996;7.044;2023-02-18T07:22:41;1.05;;;0.65;;
11287;SDS011;5700;50.996;7.044;2023-02-18T07:25:44;0.90;;;0.70;;
11287;SDS011;5700;50.996;7.044;2023-02-18T07:28:45;0.60;;;0.60;;
11287;SDS011;5700;50.996;7.044;2023-02-18T07:31:47;0.60;;;0.60;;
11287;SDS011;5700;50.996;7.044;2023-02-18T07:34:49;0.52;;;0.52;;
11287;SDS011;5700;50.996;7.044;2023-02-18T07:37:51;1.70;;;0.73;;
11287;SDS011;5700;50.996;7.044;2023-02-18T07:40:54;1.83;;;0.85;;
11287;SDS011;5700;50.996;7.044;2023-02-18T07:43:56;0.68;;;0.60;;
11287;SDS011;5700;50.996;7.044;2023-02-18T07:46:58;0.73;;;0.60;;
11287;SDS011;5700;50.996;7.044;2023-02-18T07:49:59;0.60;;;0.60;;
11287;SDS011;5700;50.996;7.044;2023-02-18T07:53:01;1.42;;;0.70;;
11287;SDS011;5700;50.996;7.044;2023-02-18T07:56:04;1.25;;;0.63;;
11287;SDS011;5700;50.996;7.044;2023-02-18T07:59:06;0.60;;;0.60;;
11287;SDS011;5700;50.996;7.044;2023-02-18T08:02:09;0.50;;;0.50;;
11287;SDS011;5700;50.996;7.044;2023-02-18T08:05:15;0.90;;;0.70;;
11287;SDS011;5700;50.996;7.044;2023-02-18T08:08:18;1.70;;;0.50;;
11287;SDS011;5700;50.996;7.044;2023-02-18T08:11:22;0.70;;;0.50;;
11287;SDS011;5700;50.996;7.044;2023-02-18T08:14:24;0.70;;;0.60;;
11287;SDS011;5700;50.996;7.044;2023-02-18T08:17:25;2.30;;;0.65;;
11287;SDS011;5700;50.996;7.044;2023-02-18T08:20:27;2.00;;;0.60;;
11287;SDS011;5700;50.996;7.044;2023-02-18T08:23:28;2.20;;;0.93;;
11287;SDS011;5700;50.996;7.044;2023-02-18T08:26:31;2.00;;;1.00;;
11287;SDS011;5700;50.996;7.044;2023-02-18T08:29:32;4.30;;;0.90;;
11287;SDS011;5700;50.996;7.044;2023-02-18T08:32:34;3.00;;;1.10;;
11287;SDS011;5700;50.996;7.044;2023-02-18T08:35:35;5.10;;;1.60;;
11287;SDS011;5700;50.996;7.044;2023-02-18T08:38:36;3.45;;;1.70;;
11287;SDS011;5700;50.996;7.044;2023-02-18T08:41:39;4.55;;;1.30;;
11287;SDS011;5700;50.996;7.044;2023-02-18T08:44:41;3.15;;;1.40;;
11287;SDS011;5700;50.996;7.044;2023-02-18T08:47:42;2.50;;;1.35;;
11287;SDS011;5700;50.996;7.044;2023-02-18T08:50:43;2.08;;;1.25;;
11287;SDS011;5700;50.996;7.044;2023-02-18T08:53:45;3.67;;;1.20;;
11287;SDS011;5700;50.996;7.044;2023-02-18T08:56:48;3.13;;;1.30;;
11287;SDS011;5700;50.996;7.044;2023-02-18T08:59:49;4.63;;;1.58;;
11287;SDS011;5700;50.996;7.044;2023-02-18T09:02:50;5.78;;;1.83;;
11287;SDS011;5700;50.996;7.044;2023-02-18T09:05:52;6.20;;;1.60;;
11287;SDS011;5700;50.996;7.044;2023-02-18T09:08:53;4.45;;;1.42;;
11287;SDS011;5700;50.996;7.044;2023-02-18T09:11:56;8.02;;;1.40;;
11287;SDS011;5700;50.996;7.044;2023-02-18T09:14:58;7.40;;;1.55;;
11287;SDS011;5700;50.996;7.044;2023-02-18T09:17:59;4.25;;;1.40;;
11287;SDS011;5700;50.996;7.044;2023-02-18T09:21:01;3.88;;;1.10;;
11287;SDS011;5700;50.996;7.044;2023-02-18T09:24:04;4.18;;;1.45;;
11287;SDS011;5700;50.996;7.044;2023-02-18T09:27:07;7.93;;;1.85;;
11287;SDS011;5700;50.996;7.044;2023-02-18T09:30:09;5.40;;;1.60;;
11287;SDS011;5700;50.996;7.044;2023-02-18T09:33:10;6.47;;;1.70;;
11287;SDS011;5700;50.996;7.044;2023-02-18T09:36:12;7.85;;;1.50;;
11287;SDS011;5700;50.996;7.044;2023-02-18T09:39:14;5.82;;;1.33;;
11287;SDS011;5700;50.996;7.044;2023-02-18T09:42:18;4.63;;;1.45;;
11287;SDS011;5700;50.996;7.044;2023-02-18T09:45:21;5.93;;;1.60;;
11287;SDS011;5700;50.996;7.044;2023-02-18T09:48:24;5.30;;;1.30;;
11287;SDS011;5700;50.996;7.044;2023-02-18T09:51:28;6.22;;;1.55;;
11287;SDS011;5700;50.996;7.044;2023-02-18T09:54:29;4.28;;;1.35;;
11287;SDS011;5700;50.996;7.044;2023-02-18T09:57:34;5.90;;;1.77;;
11287;SDS011;5700;50.996;7.044;2023-02-18T10:00:41;6.53;;;1.65;;
11287;SDS011;5700;50.996;7.044;2023-02-18T10:03:43;3.55;;;1.35;;
11287;SDS011;5700;50.996;7.044;2023-02-18T10:06:45;8.18;;;1.63;;
11287;SDS011;5700;50.996;7.044;2023-02-18T10:09:48;8.32;;;1.60;;
11287;SDS011;5700;50.996;7.044;2023-02-18T10:12:53;6.15;;;1.50;;
11287;SDS011;5700;50.996;7.044;2023-02-18T10:15:55;4.60;;;1.95;;
11287;SDS011;5700;50.996;7.044;2023-02-18T10:18:57;3.03;;;1.02;;
11287;SDS011;5700;50.996;7.044;2023-02-18T10:22:00;3.88;;;1.52;;
11287;SDS011;5700;50.996;7.044;2023-02-18T10:25:04;2.47;;;1.15;;
11287;SDS011;5700;50.996;7.044;2023-02-18T10:28:08;3.70;;;1.05;;
11287;SDS011;5700;50.996;7.044;2023-02-18T10:31:11;2.05;;;1.10;;
11287;SDS011;5700;50.996;7.044;2023-02-18T10:34:16;4.60;;;1.35;;
11287;SDS011;5700;50.996;7.044;2023-02-18T10:40:46;4.13;;;1.10;;
11287;SDS011;5700;50.996;7.044;2023-02-18T10:43:57;3.40;;;1.25;;
11287;SDS011;5700;50.996;7.044;2023-02-18T10:47:06;3.45;;;1.30;;
11287;SDS011;5700;50.996;7.044;2023-02-18T10:50:17;3.35;;;1.10;;
11287;SDS011;5700;50.996;7.044;2023-02-18T10:53:28;3.33;;;0.90;;
11287;SDS011;5700;50.996;7.044;2023-02-18T10:56:33;1.83;;;1.00;;
11287;SDS011;5700;50.996;7.044;2023-02-18T10:59:37;2.88;;;1.08;;
11287;SDS011;5700;50.996;7.044;2023-02-18T11:02:39;2.63;;;0.90;;
11287;SDS011;5700;50.996;7.044;2023-02-18T11:05:41;2.92;;;1.67;;
11287;SDS011;5700;50.996;7.044;2023-02-18T11:08:44;0.65;;;0.50;;
11287;SDS011;5700;50.996;7.044;2023-02-18T11:11:46;1.17;;;1.05;;
11287;SDS011;5700;50.996;7.044;2023-02-18T11:14:49;2.08;;;1.05;;
11287;SDS011;5700;50.996;7.044;2023-02-18T11:18:12;6.88;;;1.15;;
11287;SDS011;5700;50.996;7.044;2023-02-18T11:21:20;3.30;;;1.63;;
11287;SDS011;5700;50.996;7.044;2023-02-18T11:24:25;2.40;;;1.08;;
11287;SDS011;5700;50.996;7.044;2023-02-18T11:27:29;2.20;;;1.30;;
11287;SDS011;5700;50.996;7.044;2023-02-18T11:30:34;4.90;;;1.35;;
11287;SDS011;5700;50.996;7.044;2023-02-18T11:33:38;3.28;;;1.42;;
11287;SDS011;5700;50.996;7.044;2023-02-18T11:36:40;3.95;;;1.50;;
11287;SDS011;5700;50.996;7.044;2023-02-18T11:39:42;4.82;;;1.52;;
11287;SDS011;5700;50.996;7.044;2023-02-18T11:42:45;3.65;;;1.70;;
11287;SDS011;5700;50.996;7.044;2023-02-18T11:45:47;3.47;;;1.70;;
11287;SDS011;5700;50.996;7.044;2023-02-18T11:48:50;2.40;;;1.65;;
11287;SDS011;5700;50.996;7.044;2023-02-18T11:51:52;2.50;;;1.60;;
11287;SDS011;5700;50.996;7.044;2023-02-18T11:55:02;3.25;;;1.60;;
11287;SDS011;5700;50.996;7.044;2023-02-18T11:58:08;3.75;;;1.70;;
11287;SDS011;5700;50.996;7.044;2023-02-18T12:01:13;3.10;;;1.65;;
11287;SDS011;5700;50.996;7.044;2023-02-18T12:04:18;4.30;;;1.77;;
11287;SDS011;5700;50.996;7.044;2023-02-18T12:07:22;4.50;;;1.48;;
11287;SDS011;5700;50.996;7.044;2023-02-18T12:10:26;3.30;;;2.03;;
11287;SDS011;5700;50.996;7.044;2023-02-18T12:13:31;2.90;;;1.58;;
11287;SDS011;5700;50.996;7.044;2023-02-18T12:16:37;2.03;;;1.65;;
11287;SDS011;5700;50.996;7.044;2023-02-18T12:19:48;5.57;;;1.60;;
11287;SDS011;5700;50.996;7.044;2023-02-18T12:22:56;2.58;;;1.60;;
11287;SDS011;5700;50.996;7.044;2023-02-18T12:26:01;3.75;;;1.60;;
11287;SDS011;5700;50.996;7.044;2023-02-18T12:29:12;2.78;;;1.63;;
11287;SDS011;5700;50.996;7.044;2023-02-18T12:32:24;4.72;;;1.90;;
11287;SDS011;5700;50.996;7.044;2023-02-18T12:35:34;5.05;;;1.92;;
11287;SDS011;5700;50.996;7.044;2023-02-18T12:38:48;2.90;;;1.73;;
11287;SDS011;5700;50.996;7.044;2023-02-18T12:41:58;4.20;;;1.95;;
11287;SDS011;5700;50.996;7.044;2023-02-18T12:45:12;7.72;;;2.20;;
11287;SDS011;5700;50.996;7.044;2023-02-18T12:48:26;4.03;;;1.63;;
11287;SDS011;5700;50.996;7.044;2023-02-18T12:51:38;4.35;;;1.60;;
11287;SDS011;5700;50.996;7.044;2023-02-18T12:54:48;4.88;;;1.77;;
11287;SDS011;5700;50.996;7.044;2023-02-18T12:57:58;6.35;;;1.90;;
11287;SDS011;5700;50.996;7.044;2023-02-18T13:01:09;2.65;;;1.40;;
11287;SDS011;5700;50.996;7.044;2023-02-18T13:04:26;2.83;;;1.60;;
11287;SDS011;5700;50.996;7.044;2023-02-18T13:07:40;3.20;;;1.77;;
11287;SDS011;5700;50.996;7.044;2023-02-18T13:10:55;4.85;;;2.33;;
11287;SDS011;5700;50.996;7.044;2023-02-18T13:14:07;6.10;;;2.25;;
11287;SDS011;5700;50.996;7.044;2023-02-18T13:17:10;4.97;;;2.00;;
11287;SDS011;5700;50.996;7.044;2023-02-18T13:20:17;4.88;;;2.10;;
11287;SDS011;5700;50.996;7.044;2023-02-18T13:23:22;6.78;;;1.80;;
11287;SDS011;5700;50.996;7.044;2023-02-18T13:26:26;4.68;;;2.20;;
11287;SDS011;5700;50.996;7.044;2023-02-18T13:29:30;3.00;;;1.70;;
11287;SDS011;5700;50.996;7.044;2023-02-18T13:32:35;2.40;;;1.42;;
11287;SDS011;5700;50.996;7.044;2023-02-18T13:35:42;5.55;;;1.98;;
11287;SDS011;5700;50.996;7.044;2023-02-18T13:38:50;3.75;;;2.15;;
11287;SDS011;5700;50.996;7.044;2023-02-18T13:42:09;6.05;;;1.77;;
11287;SDS011;5700;50.996;7.044;2023-02-18T13:48:35;3.70;;;1.75;;
11287;SDS011;5700;50.996;7.044;2023-02-18T13:51:43;2.80;;;1.48;;
11287;SDS011;5700;50.996;7.044;2023-02-18T13:54:47;2.53;;;1.58;;
11287;SDS011;5700;50.996;7.044;2023-02-18T13:57:51;3.65;;;1.70;;
11287;SDS011;5700;50.996;7.044;2023-02-18T14:00:55;3.47;;;1.80;;
11287;SDS011;5700;50.996;7.044;2023-02-18T14:04:01;5.03;;;1.90;;
11287;SDS011;5700;50.996;7.044;2023-02-18T14:07:19;2.45;;;1.33;;
11287;SDS011;5700;50.996;7.044;2023-02-18T14:10:35;6.00;;;2.15;;
11287;SDS011;5700;50.996;7.044;2023-02-18T14:13:37;5.57;;;2.25;;
11287;SDS011;5700;50.996;7.044;2023-02-18T14:20:26;3.28;;;1.52;;
11287;SDS011;5700;50.996;7.044;2023-02-18T14:26:56;4.55;;;2.20;;
11287;SDS011;5700;50.996;7.044;2023-02-18T14:30:14;3.33;;;1.90;;
11287;SDS011;5700;50.996;7.044;2023-02-18T14:33:18;3.10;;;1.77;;
11287;SDS011;5700;50.996;7.044;2023-02-18T14:36:23;3.55;;;1.80;;
11287;SDS011;5700;50.996;7.044;2023-02-18T14:39:32;5.35;;;2.03;;
11287;SDS011;5700;50.996;7.044;2023-02-18T14:42:40;2.63;;;1.75;;
11287;SDS011;5700;50.996;7.044;2023-02-18T14:45:49;4.68;;;1.90;;
11287;SDS011;5700;50.996;7.044;2023-02-18T14:49:04;3.15;;;1.92;;
11287;SDS011;5700;50.996;7.044;2023-02-18T14:52:16;2.95;;;1.58;;
11287;SDS011;5700;50.996;7.044;2023-02-18T14:55:25;3.80;;;1.40;;
11287;SDS011;5700;50.996;7.044;2023-02-18T14:58:29;2.67;;;1.40;;
11287;SDS011;5700;50.996;7.044;2023-02-18T15:01:33;2.28;;;1.40;;
11287;SDS011;5700;50.996;7.044;2023-02-18T15:04:35;2.50;;;1.70;;
11287;SDS011;5700;50.996;7.044;2023-02-18T15:07:37;2.38;;;1.42;;
11287;SDS011;5700;50.996;7.044;2023-02-18T15:10:40;3.50;;;1.40;;
11287;SDS011;5700;50.996;7.044;2023-02-18T15:13:44;2.15;;;1.38;;
11287;SDS011;5700;50.996;7.044;2023-02-18T15:16:46;3.05;;;1.45;;
11287;SDS011;5700;50.996;7.044;2023-02-18T15:19:50;2.38;;;1.50;;
11287;SDS011;5700;50.996;7.044;2023-02-18T15:22:53;2.85;;;1.63;;
11287;SDS011;5700;50.996;7.044;2023-02-18T15:25:56;3.85;;;1.58;;
11287;SDS011;5700;50.996;7.044;2023-02-18T15:28:59;3.33;;;1.50;;
11287;SDS011;5700;50.996;7.044;2023-02-18T15:32:09;2.58;;;1.58;;
11287;SDS011;5700;50.996;7.044;2023-02-18T15:35:16;3.47;;;1.70;;
11287;SDS011;5700;50.996;7.044;2023-02-18T15:38:18;3.95;;;1.73;;
11287;SDS011;5700;50.996;7.044;2023-02-18T15:41:21;2.45;;;1.30;;
11287;SDS011;5700;50.996;7.044;2023-02-18T15:44:23;6.75;;;1.80;;
11287;SDS011;5700;50.996;7.044;2023-02-18T15:47:25;2.80;;;1.40;;
11287;SDS011;5700;50.996;7.044;2023-02-18T15:50:28;2.75;;;1.67;;
11287;SDS011;5700;50.996;7.044;2023-02-18T15:53:31;2.47;;;1.50;;
11287;SDS011;5700;50.996;7.044;2023-02-18T15:56:38;1.77;;;1.17;;
11287;SDS011;5700;50.996;7.044;2023-02-18T15:59:43;3.95;;;1.80;;
11287;SDS011;5700;50.996;7.044;2023-02-18T16:02:50;3.15;;;1.45;;
11287;SDS011;5700;50.996;7.044;2023-02-18T16:06:07;2.63;;;1.52;;
11287;SDS011;5700;50.996;7.044;2023-02-18T16:09:12;3.90;;;1.20;;
11287;SDS011;5700;50.996;7.044;2023-02-18T16:12:20;2.47;;;1.30;;
11287;SDS011;5700;50.996;7.044;2023-02-18T16:15:25;2.58;;;1.50;;
11287;SDS011;5700;50.996;7.044;2023-02-18T16:18:29;2.78;;;1.60;;
11287;SDS011;5700;50.996;7.044;2023-02-18T16:21:36;2.47;;;1.77;;
11287;SDS011;5700;50.996;7.044;2023-02-18T16:24:39;2.72;;;1.42;;
11287;SDS011;5700;50.996;7.044;2023-02-18T16:27:47;5.20;;;1.80;;
11287;SDS011;5700;50.996;7.044;2023-02-18T16:30:51;2.75;;;1.60;;
11287;SDS011;5700;50.996;7.044;2023-02-18T16:33:52;4.65;;;1.60;;
11287;SDS011;5700;50.996;7.044;2023-02-18T16:36:54;3.30;;;1.90;;
11287;SDS011;5700;50.996;7.044;2023-02-18T16:40:15;6.28;;;1.92;;
11287;SDS011;5700;50.996;7.044;2023-02-18T16:43:25;3.05;;;2.08;;
11287;SDS011;5700;50.996;7.044;2023-02-18T16:46:31;3.67;;;2.20;;
11287;SDS011;5700;50.996;7.044;2023-02-18T16:49:34;3.70;;;1.85;;
11287;SDS011;5700;50.996;7.044;2023-02-18T16:52:35;4.45;;;2.15;;
11287;SDS011;5700;50.996;7.044;2023-02-18T16:55:37;4.93;;;2.60;;
11287;SDS011;5700;50.996;7.044;2023-02-18T16:58:39;4.28;;;2.00;;
11287;SDS011;5700;50.996;7.044;2023-02-18T17:01:41;6.35;;;1.90;;
11287;SDS011;5700;50.996;7.044;2023-02-18T17:04:45;5.57;;;2.80;;
11287;SDS011;5700;50.996;7.044;2023-02-18T17:07:47;3.88;;;2.30;;
11287;SDS011;5700;50.996;7.044;2023-02-18T17:10:48;4.55;;;2.42;;
11287;SDS011;5700;50.996;7.044;2023-02-18T17:13:53;4.15;;;2.10;;
11287;SDS011;5700;50.996;7.044;2023-02-18T17:16:57;4.82;;;2.30;;
11287;SDS011;5700;50.996;7.044;2023-02-18T17:19:58;6.20;;;2.97;;
11287;SDS011;5700;50.996;7.044;2023-02-18T17:23:00;5.43;;;2.40;;
11287;SDS011;5700;50.996;7.044;2023-02-18T17:26:01;4.78;;;2.45;;
11287;SDS011;5700;50.996;7.044;2023-02-18T17:29:04;3.28;;;2.13;;
11287;SDS011;5700;50.996;7.044;2023-02-18T17:32:05;3.15;;;1.98;;
11287;SDS011;5700;50.996;7.044;2023-02-18T17:35:09;3.50;;;1.90;;
11287;SDS011;5700;50.996;7.044;2023-02-18T17:38:16;4.25;;;2.10;;
11287;SDS011;5700;50.996;7.044;2023-02-18T17:41:18;3.40;;;2.00;;
11287;SDS011;5700;50.996;7.044;2023-02-18T17:44:21;5.72;;;2.70;;
11287;SDS011;5700;50.996;7.044;2023-02-18T17:47:23;5.00;;;2.70;;
11287;SDS011;5700;50.996;7.044;2023-02-18T17:50:25;5.72;;;2.70;;
11287;SDS011;5700;50.996;7.044;2023-02-18T17:53:28;6.75;;;3.25;;
11287;SDS011;5700;50.996;7.044;2023-02-18T17:56:29;5.20;;;2.85;;
11287;SDS011;5700;50.996;7.044;2023-02-18T17:59:35;3.67;;;2.53;;
11287;SDS011;5700;50.996;7.044;2023-02-18T18:02:37;5.65;;;2.92;;
11287;SDS011;5700;50.996;7.044;2023-02-18T18:05:39;8.20;;;3.13;;
11287;SDS011;5700;50.996;7.044;2023-02-18T18:08:41;6.03;;;3.03;;
11287;SDS011;5700;50.996;7.044;2023-02-18T18:11:43;5.45;;;2.90;;
11287;SDS011;5700;50.996;7.044;2023-02-18T18:14:45;4.85;;;2.92;;
11287;SDS011;5700;50.996;7.044;2023-02-18T18:17:47;6.05;;;2.83;;
11287;SDS011;5700;50.996;7.044;2023-02-18T18:20:49;5.78;;;3.58;;
11287;SDS011;5700;50.996;7.044;2023-02-18T18:23:52;5.55;;;3.38;;
11287;SDS011;5700;50.996;7.044;2023-02-18T18:26:53;10.02;;;3.70;;
11287;SDS011;5700;50.996;7.044;2023-02-18T18:29:56;6.00;;;3.83;;
11287;SDS011;5700;50.996;7.044;2023-02-18T18:32:58;9.18;;;5.28;;
11287;SDS011;5700;50.996;7.044;2023-02-18T18:35:59;7.75;;;3.97;;
11287;SDS011;5700;50.996;7.044;2023-02-18T18:39:01;9.30;;;4.45;;
11287;SDS011;5700;50.996;7.044;2023-02-18T18:42:02;7.63;;;4.38;;
11287;SDS011;5700;50.996;7.044;2023-02-18T18:45:09;8.40;;;5.20;;
11287;SDS011;5700;50.996;7.044;2023-02-18T18:48:16;8.88;;;4.68;;
11287;SDS011;5700;50.996;7.044;2023-02-18T18:51:20;9.68;;;5.10;;
11287;SDS011;5700;50.996;7.044;2023-02-18T18:54:25;10.13;;;5.50;;
11287;SDS011;5700;50.996;7.044;2023-02-18T18:57:26;9.93;;;5.10;;
11287;SDS011;5700;50.996;7.044;2023-02-18T19:00:29;11.57;;;5.35;;
11287;SDS011;5700;50.996;7.044;2023-02-18T19:03:32;8.07;;;5.00;;